Time;durP1;ratioP1;P1;durP2;ratioP2;P2;SDS_P1;SDS_P2;PMS_P1;PMS_P2;Temp;Humidity;BMP_temperature;BMP_pressure;BME280_temperature;BME280_humidity;BME280_pressure;Samples;Min_cycle;Max_cycle;Signal;HPM_P1;HPM_P2
2024/03/03 00:01:28;;;;;;;19.30;8.00;;;3.60;99.90;;;;;;5044574;28;20175;-55
2024/03/03 00:03:54;;;;;;;16.83;8.37;;;3.50;99.90;;;;;;5037492;28;20195;-56
2024/03/03 00:06:19;;;;;;;18.67;7.53;;;3.40;99.90;;;;;;5041042;28;20232;-58
2024/03/03 00:08:45;;;;;;;15.70;8.13;;;3.40;99.90;;;;;;5048666;28;20171;-56
2024/03/03 00:11:11;;;;;;;19.00;8.37;;;3.40;99.90;;;;;;5046414;28;20241;-52
2024/03/03 00:13:36;;;;;;;18.27;8.20;;;3.40;99.90;;;;;;5029262;28;20219;-53
2024/03/03 00:16:04;;;;;;;23.20;8.67;;;3.40;99.90;;;;;;5045203;28;20207;-53
2024/03/03 00:18:29;;;;;;;20.73;8.67;;;3.30;99.90;;;;;;5042241;28;20187;-55
2024/03/03 00:20:55;;;;;;;16.47;7.87;;;3.30;99.90;;;;;;5048957;28;20175;-53
2024/03/03 00:23:20;;;;;;;18.17;8.43;;;3.30;99.90;;;;;;5056758;28;20195;-53
2024/03/03 00:25:46;;;;;;;18.57;8.37;;;3.20;99.90;;;;;;5040634;28;20179;-56
2024/03/03 00:28:12;;;;;;;20.53;8.30;;;3.20;99.90;;;;;;5031690;28;20660;-55
2024/03/03 00:30:37;;;;;;;19.37;7.97;;;3.10;99.90;;;;;;5034632;28;20198;-55
2024/03/03 00:33:03;;;;;;;19.63;8.13;;;3.20;99.90;;;;;;5038372;28;20690;-54
2024/03/03 00:35:29;;;;;;;18.73;8.27;;;3.20;99.90;;;;;;5040139;28;20667;-53
2024/03/03 00:37:54;;;;;;;19.07;8.17;;;3.10;99.90;;;;;;5031577;28;20242;-60
2024/03/03 00:40:20;;;;;;;19.20;7.67;;;3.10;99.90;;;;;;5032511;28;20183;-58
2024/03/03 00:42:45;;;;;;;19.33;8.47;;;3.10;99.90;;;;;;5033453;28;20598;-55
2024/03/03 00:45:11;;;;;;;21.43;8.17;;;3.10;99.90;;;;;;5047491;28;20215;-55
2024/03/03 00:47:37;;;;;;;19.53;8.53;;;3.00;99.90;;;;;;5034371;28;20255;-58
2024/03/03 00:50:03;;;;;;;18.43;7.77;;;3.00;99.90;;;;;;5037150;28;20646;-56
2024/03/03 00:52:28;;;;;;;18.13;7.90;;;3.00;99.90;;;;;;5028872;28;20204;-57
2024/03/03 00:54:54;;;;;;;18.97;8.83;;;2.90;99.90;;;;;;5030304;28;20294;-57
2024/03/03 00:57:19;;;;;;;15.67;7.53;;;3.00;99.90;;;;;;5051809;28;20602;-54
2024/03/03 00:59:45;;;;;;;18.67;8.60;;;3.00;99.90;;;;;;5052326;28;20187;-56
2024/03/03 01:02:11;;;;;;;18.10;7.83;;;2.90;99.90;;;;;;5035506;28;20202;-56
2024/03/03 01:04:36;;;;;;;16.90;7.40;;;2.80;99.90;;;;;;5038182;28;20188;-57
2024/03/03 01:07:02;;;;;;;18.23;8.07;;;2.80;99.90;;;;;;5047454;28;20195;-57
2024/03/03 01:09:29;;;;;;;20.10;8.40;;;2.70;99.90;;;;;;5039894;28;20211;-55
2024/03/03 01:11:54;;;;;;;15.57;7.67;;;2.80;99.90;;;;;;5031852;28;20181;-55
2024/03/03 01:14:23;;;;;;;16.83;8.27;;;2.70;99.90;;;;;;5031746;28;20290;-56
2024/03/03 01:16:49;;;;;;;19.77;7.90;;;2.70;99.90;;;;;;5031822;28;20230;-58
2024/03/03 01:19:14;;;;;;;18.30;8.00;;;2.60;99.90;;;;;;5039710;28;20195;-54
2024/03/03 01:21:40;;;;;;;25.80;7.67;;;2.70;99.90;;;;;;5031981;28;20187;-52
2024/03/03 01:24:06;;;;;;;18.00;7.87;;;2.60;99.90;;;;;;5049499;28;20253;-52
2024/03/03 01:26:32;;;;;;;16.67;7.30;;;2.70;99.90;;;;;;5056723;28;20257;-53
2024/03/03 01:28:57;;;;;;;16.57;7.73;;;2.70;99.90;;;;;;5054112;28;20270;-54
2024/03/03 01:31:23;;;;;;;17.03;7.57;;;2.70;99.90;;;;;;5051452;28;20194;-52
2024/03/03 01:33:49;;;;;;;13.43;6.73;;;2.50;99.90;;;;;;5044101;28;20291;-53
2024/03/03 01:36:14;;;;;;;17.43;6.87;;;2.40;99.90;;;;;;5042158;28;20272;-52
2024/03/03 01:38:40;;;;;;;14.00;7.07;;;2.40;99.90;;;;;;5043272;28;20176;-52
2024/03/03 01:41:06;;;;;;;15.87;6.87;;;2.40;99.90;;;;;;5041785;28;20194;-52
2024/03/03 01:43:32;;;;;;;13.90;6.70;;;2.40;99.90;;;;;;5044463;28;20206;-52
2024/03/03 01:45:58;;;;;;;15.37;7.00;;;2.40;99.90;;;;;;5042462;28;20298;-52
2024/03/03 01:48:24;;;;;;;13.60;6.80;;;2.30;99.90;;;;;;5030682;28;20266;-55
2024/03/03 01:50:50;;;;;;;16.43;7.57;;;2.20;99.90;;;;;;5038841;28;20308;-52
2024/03/03 01:53:18;;;;;;;15.73;7.07;;;2.20;99.90;;;;;;5039716;28;20207;-53
2024/03/03 01:55:45;;;;;;;14.43;7.27;;;2.20;99.90;;;;;;5031290;28;20234;-53
2024/03/03 01:58:12;;;;;;;19.27;8.77;;;2.20;99.90;;;;;;5038873;28;20194;-54
2024/03/03 02:00:38;;;;;;;18.80;7.80;;;2.10;99.90;;;;;;5045399;28;20559;-53
2024/03/03 02:03:07;;;;;;;18.63;8.00;;;2.20;99.90;;;;;;5052327;28;20191;-52
2024/03/03 02:05:35;;;;;;;17.97;7.90;;;2.10;99.90;;;;;;5057680;28;20267;-55
2024/03/03 02:08:02;;;;;;;14.67;7.43;;;2.10;99.90;;;;;;5041417;28;20189;-55
2024/03/03 02:10:28;;;;;;;19.80;8.37;;;2.20;99.90;;;;;;5039446;28;20218;-55
2024/03/03 02:12:54;;;;;;;18.10;7.80;;;2.20;99.90;;;;;;5047240;28;20213;-52
2024/03/03 02:15:19;;;;;;;15.23;7.87;;;2.20;99.90;;;;;;5050737;28;20215;-54
2024/03/03 02:17:45;;;;;;;14.40;7.40;;;2.20;99.90;;;;;;5043695;28;20180;-53
2024/03/03 02:20:11;;;;;;;14.97;7.83;;;2.40;99.90;;;;;;5049433;28;20222;-54
2024/03/03 02:22:36;;;;;;;17.63;7.70;;;2.40;99.90;;;;;;5045537;28;20208;-54
2024/03/03 02:25:03;;;;;;;18.27;8.10;;;2.50;99.90;;;;;;5047453;28;20187;-56
2024/03/03 02:27:31;;;;;;;15.63;7.77;;;2.40;99.90;;;;;;5048034;28;20740;-55
2024/03/03 02:29:56;;;;;;;17.27;7.90;;;2.50;99.90;;;;;;5054163;28;20244;-55
2024/03/03 02:32:22;;;;;;;16.27;7.40;;;2.50;99.90;;;;;;5058881;28;20229;-53
2024/03/03 02:34:47;;;;;;;20.27;8.93;;;2.60;99.90;;;;;;5050612;28;20750;-55
2024/03/03 02:37:13;;;;;;;17.07;8.87;;;2.60;99.90;;;;;;5041557;28;20220;-54
2024/03/03 02:39:38;;;;;;;17.30;8.30;;;2.70;99.90;;;;;;5050371;28;20210;-54
2024/03/03 02:42:04;;;;;;;18.20;8.83;;;2.70;99.90;;;;;;5031280;28;20198;-52
2024/03/03 02:44:29;;;;;;;22.40;9.27;;;2.60;99.90;;;;;;5034768;28;20195;-52
2024/03/03 02:46:55;;;;;;;16.50;9.17;;;2.60;99.90;;;;;;5041898;28;20551;-52
2024/03/03 02:49:21;;;;;;;20.63;9.03;;;2.70;99.90;;;;;;5041410;28;20198;-54
2024/03/03 02:51:46;;;;;;;18.03;9.10;;;2.70;99.90;;;;;;5043253;28;20218;-53
2024/03/03 02:54:12;;;;;;;22.73;9.10;;;2.70;99.90;;;;;;5031900;28;20214;-54
2024/03/03 02:56:37;;;;;;;18.47;8.63;;;2.70;99.90;;;;;;5044487;28;20284;-56
2024/03/03 02:59:03;;;;;;;19.33;8.63;;;2.70;99.90;;;;;;5046911;28;20328;-56
2024/03/03 03:01:28;;;;;;;17.33;8.17;;;2.70;99.90;;;;;;5041983;28;20662;-53
2024/03/03 03:03:54;;;;;;;16.43;8.83;;;2.70;99.90;;;;;;5050198;28;20207;-53
2024/03/03 03:06:19;;;;;;;16.50;7.87;;;2.80;99.90;;;;;;5049627;28;20195;-54
2024/03/03 03:08:45;;;;;;;15.47;7.70;;;2.80;99.90;;;;;;5049616;28;20197;-53
2024/03/03 03:11:13;;;;;;;17.13;8.23;;;2.80;99.90;;;;;;5049716;28;20222;-56
2024/03/03 03:13:38;;;;;;;16.50;8.33;;;2.80;99.90;;;;;;5049629;28;20248;-52
2024/03/03 03:16:05;;;;;;;20.63;8.50;;;2.90;99.90;;;;;;5049540;28;20593;-52
2024/03/03 03:18:31;;;;;;;22.33;9.10;;;2.90;99.90;;;;;;5044198;28;20163;-56
2024/03/03 03:20:56;;;;;;;23.20;8.90;;;2.90;99.90;;;;;;5046369;28;20696;-55
2024/03/03 03:23:23;;;;;;;18.30;8.63;;;2.80;99.90;;;;;;5046181;28;20219;-54
2024/03/03 03:25:49;;;;;;;18.57;8.30;;;2.80;99.90;;;;;;5037192;28;20187;-57
2024/03/03 03:28:15;;;;;;;15.87;7.73;;;2.70;99.90;;;;;;5049237;28;20190;-54
2024/03/03 03:30:40;;;;;;;25.17;9.60;;;2.70;99.90;;;;;;5049841;28;20183;-52
2024/03/03 03:33:06;;;;;;;19.60;9.47;;;2.80;99.90;;;;;;5057702;28;20733;-56
2024/03/03 03:35:33;;;;;;;21.07;9.53;;;2.80;99.90;;;;;;5049787;28;20210;-58
2024/03/03 03:37:58;;;;;;;17.50;8.23;;;2.80;99.90;;;;;;5049514;28;20206;-56
2024/03/03 03:40:25;;;;;;;16.63;7.87;;;2.70;99.90;;;;;;5057351;28;20222;-57
2024/03/03 03:42:51;;;;;;;14.37;7.87;;;2.80;99.90;;;;;;5041464;28;20207;-57
2024/03/03 03:45:16;;;;;;;17.87;8.57;;;2.70;99.90;;;;;;5037998;28;20226;-53
2024/03/03 03:47:42;;;;;;;19.53;8.37;;;2.80;99.90;;;;;;5036996;28;20187;-55
2024/03/03 03:50:08;;;;;;;16.63;8.40;;;2.80;99.90;;;;;;5029171;28;20248;-58
2024/03/03 03:52:33;;;;;;;17.63;8.63;;;2.90;99.90;;;;;;5034597;28;20649;-53
2024/03/03 03:54:59;;;;;;;22.87;9.43;;;3.00;99.90;;;;;;5040932;28;20694;-54
2024/03/03 03:57:25;;;;;;;18.63;8.87;;;2.80;99.90;;;;;;5049064;28;20205;-58
2024/03/03 03:59:50;;;;;;;21.27;9.10;;;2.80;99.90;;;;;;5056754;28;20187;-57
2024/03/03 04:02:16;;;;;;;17.80;8.27;;;2.80;99.90;;;;;;5066865;28;20261;-59
2024/03/03 04:04:42;;;;;;;21.30;8.80;;;2.80;99.90;;;;;;5049399;28;20598;-53
2024/03/03 04:07:08;;;;;;;18.50;8.37;;;2.70;99.90;;;;;;5040596;28;20188;-58
2024/03/03 04:09:34;;;;;;;17.63;7.83;;;2.80;99.90;;;;;;5049294;28;20625;-56
2024/03/03 04:11:59;;;;;;;17.07;8.23;;;2.80;99.90;;;;;;5049227;28;20233;-53
2024/03/03 04:14:26;;;;;;;18.93;8.57;;;2.80;99.90;;;;;;5041015;28;20211;-55
2024/03/03 04:16:52;;;;;;;17.37;8.47;;;2.70;99.90;;;;;;5056803;28;20555;-57
2024/03/03 04:19:17;;;;;;;19.03;8.03;;;2.80;99.90;;;;;;5049525;28;20193;-55
2024/03/03 04:21:44;;;;;;;19.27;8.67;;;2.80;99.90;;;;;;5049267;28;20178;-54
2024/03/03 04:24:10;;;;;;;18.40;7.93;;;2.60;99.90;;;;;;5048857;28;20658;-53
2024/03/03 04:26:37;;;;;;;20.13;8.93;;;2.70;99.90;;;;;;5057407;28;20180;-52
2024/03/03 04:29:02;;;;;;;19.07;8.20;;;2.60;99.90;;;;;;5057014;28;20565;-56
2024/03/03 04:31:28;;;;;;;16.43;7.93;;;2.60;99.90;;;;;;5052744;28;20175;-59
2024/03/03 04:33:54;;;;;;;18.70;7.83;;;2.70;99.90;;;;;;5060885;28;20229;-57
2024/03/03 04:36:19;;;;;;;18.27;7.80;;;2.70;99.90;;;;;;5069892;28;20202;-53
2024/03/03 04:38:45;;;;;;;16.80;7.77;;;2.70;99.90;;;;;;5052519;28;20635;-56
2024/03/03 04:41:20;;;;;;;22.30;8.83;;;2.70;99.90;;;;;;5052692;28;20187;-55
2024/03/03 04:43:46;;;;;;;19.17;8.03;;;2.70;99.90;;;;;;5052440;28;20206;-53
2024/03/03 04:46:12;;;;;;;19.30;8.13;;;2.70;99.90;;;;;;5042003;28;20190;-53
2024/03/03 04:48:38;;;;;;;17.93;7.77;;;2.70;99.90;;;;;;5037641;28;20231;-52
2024/03/03 04:51:04;;;;;;;17.80;8.40;;;2.70;99.90;;;;;;5036126;28;20219;-52
2024/03/03 04:53:30;;;;;;;14.63;8.00;;;2.70;99.90;;;;;;5052411;28;20604;-53
2024/03/03 04:55:56;;;;;;;19.40;8.63;;;2.60;99.90;;;;;;5052741;28;20607;-53
2024/03/03 04:58:21;;;;;;;17.07;7.63;;;2.60;99.90;;;;;;5063226;28;20649;-54
2024/03/03 05:00:47;;;;;;;16.43;7.63;;;2.60;99.90;;;;;;5057327;28;20179;-52
2024/03/03 05:03:12;;;;;;;15.80;8.20;;;2.70;99.90;;;;;;5060483;28;20765;-53
2024/03/03 05:05:38;;;;;;;19.27;8.47;;;2.50;99.90;;;;;;5052492;28;20223;-53
2024/03/03 05:08:04;;;;;;;17.90;8.20;;;2.50;99.90;;;;;;5051714;28;20179;-55
2024/03/03 05:10:29;;;;;;;19.13;7.10;;;2.60;99.90;;;;;;5043871;28;20207;-57
2024/03/03 05:12:55;;;;;;;16.40;7.83;;;2.50;99.90;;;;;;5035973;28;20235;-53
2024/03/03 05:15:21;;;;;;;16.53;8.27;;;2.60;99.90;;;;;;5051315;28;20202;-55
2024/03/03 05:17:46;;;;;;;20.17;8.27;;;2.60;99.90;;;;;;5051557;28;20240;-53
2024/03/03 05:20:12;;;;;;;16.80;7.80;;;2.60;99.90;;;;;;5052035;28;20662;-53
2024/03/03 05:22:37;;;;;;;22.40;8.63;;;2.70;99.90;;;;;;5051832;28;20199;-56
2024/03/03 05:25:08;;;;;;;17.27;7.73;;;2.60;99.90;;;;;;5051733;28;20202;-54
2024/03/03 05:27:34;;;;;;;18.80;8.20;;;2.60;99.90;;;;;;5040345;28;20215;-54
2024/03/03 05:30:00;;;;;;;14.47;7.07;;;2.70;99.90;;;;;;5048613;28;20215;-56
2024/03/03 05:32:26;;;;;;;16.73;7.70;;;2.60;99.90;;;;;;5051760;28;20245;-52
2024/03/03 05:34:51;;;;;;;15.20;7.33;;;2.50;99.90;;;;;;5059904;28;20253;-57
2024/03/03 05:37:17;;;;;;;17.87;7.37;;;2.60;99.90;;;;;;5051082;28;20195;-53
2024/03/03 05:39:43;;;;;;;16.83;7.53;;;2.60;99.90;;;;;;5043118;28;20183;-52
2024/03/03 05:42:08;;;;;;;15.37;7.50;;;2.60;99.90;;;;;;5051015;28;20262;-54
2024/03/03 05:44:34;;;;;;;15.63;7.40;;;2.60;99.90;;;;;;5046359;28;20199;-55
2024/03/03 05:47:00;;;;;;;15.50;7.60;;;2.50;99.90;;;;;;5038224;28;20558;-57
2024/03/03 05:49:26;;;;;;;16.70;7.50;;;2.50;99.90;;;;;;5047248;28;20175;-56
2024/03/03 05:51:51;;;;;;;16.60;7.50;;;2.60;99.90;;;;;;5039697;28;20557;-54
2024/03/03 05:54:17;;;;;;;16.10;7.50;;;2.50;99.90;;;;;;5041996;28;20578;-53
2024/03/03 05:56:43;;;;;;;16.30;7.30;;;2.50;99.90;;;;;;5051117;28;20210;-55
2024/03/03 05:59:08;;;;;;;16.37;7.97;;;2.50;99.90;;;;;;5042725;28;20171;-53
2024/03/03 06:01:34;;;;;;;16.93;7.60;;;2.40;99.90;;;;;;5051318;28;20198;-54
2024/03/03 06:04:00;;;;;;;17.80;7.93;;;2.40;99.90;;;;;;5051094;28;20207;-54
2024/03/03 06:06:25;;;;;;;16.07;8.27;;;2.50;99.90;;;;;;5039070;28;20271;-54
2024/03/03 06:08:51;;;;;;;19.27;7.23;;;2.40;99.90;;;;;;5038953;28;20659;-53
2024/03/03 06:11:18;;;;;;;17.13;7.83;;;2.40;99.90;;;;;;5041533;28;20221;-56
2024/03/03 06:13:43;;;;;;;17.27;8.03;;;2.40;99.90;;;;;;5036403;28;20204;-52
2024/03/03 06:16:09;;;;;;;17.10;8.00;;;2.40;99.90;;;;;;5040001;28;20225;-53
2024/03/03 06:18:35;;;;;;;21.30;7.67;;;2.30;99.90;;;;;;5041398;28;20183;-56
2024/03/03 06:21:00;;;;;;;18.63;8.23;;;2.30;99.90;;;;;;5032957;28;20198;-56
2024/03/03 06:23:26;;;;;;;15.27;8.10;;;2.40;99.90;;;;;;5042193;28;20686;-53
2024/03/03 06:25:52;;;;;;;19.17;8.00;;;2.30;99.90;;;;;;5050076;28;20234;-59
2024/03/03 06:28:17;;;;;;;17.00;7.90;;;2.20;99.90;;;;;;5041130;28;20188;-54
2024/03/03 06:30:43;;;;;;;14.73;7.30;;;2.30;99.90;;;;;;5049754;28;20206;-56
2024/03/03 06:33:12;;;;;;;17.27;7.70;;;2.30;99.90;;;;;;5048316;28;20298;-54
2024/03/03 06:35:37;;;;;;;16.93;7.10;;;2.30;99.90;;;;;;5037898;28;20553;-56
2024/03/03 06:38:03;;;;;;;14.73;7.10;;;2.40;99.90;;;;;;5045766;28;20180;-53
2024/03/03 06:40:29;;;;;;;14.47;7.40;;;2.40;99.90;;;;;;5042138;28;20183;-59
2024/03/03 06:42:54;;;;;;;18.20;7.47;;;2.50;99.90;;;;;;5041819;28;20248;-53
2024/03/03 06:45:20;;;;;;;21.00;8.00;;;2.50;99.90;;;;;;5048629;28;20207;-52
2024/03/03 06:47:45;;;;;;;18.87;8.00;;;2.50;99.90;;;;;;5040894;28;20187;-56
2024/03/03 06:50:11;;;;;;;17.77;7.77;;;2.60;99.90;;;;;;5039388;28;20226;-55
2024/03/03 06:52:36;;;;;;;20.93;8.50;;;2.60;99.90;;;;;;5033883;28;20662;-55
2024/03/03 06:55:02;;;;;;;26.43;11.00;;;2.70;99.90;;;;;;5040541;28;20608;-55
2024/03/03 06:57:28;;;;;;;22.40;10.33;;;2.70;99.90;;;;;;5033143;28;20205;-53
2024/03/03 06:59:54;;;;;;;18.40;8.90;;;2.80;99.90;;;;;;5049212;28;20182;-53
2024/03/03 07:02:20;;;;;;;18.80;8.97;;;2.80;99.90;;;;;;5049164;28;20194;-56
2024/03/03 07:04:45;;;;;;;18.67;8.53;;;2.90;99.90;;;;;;5049296;28;20217;-56
2024/03/03 07:07:12;;;;;;;19.23;10.23;;;3.00;99.90;;;;;;5048234;28;20249;-58
2024/03/03 07:09:38;;;;;;;22.43;10.67;;;3.00;99.90;;;;;;5049141;28;20520;-56
2024/03/03 07:12:04;;;;;;;18.90;9.87;;;3.10;99.90;;;;;;5040639;28;20206;-56
2024/03/03 07:14:31;;;;;;;18.93;9.13;;;3.20;99.90;;;;;;5036351;28;20620;-55
2024/03/03 07:16:56;;;;;;;22.50;10.30;;;3.30;99.90;;;;;;5029182;28;20194;-53
2024/03/03 07:19:22;;;;;;;19.57;9.33;;;3.40;99.90;;;;;;5048763;28;20183;-58
2024/03/03 07:21:48;;;;;;;17.97;8.77;;;3.40;99.90;;;;;;5049034;28;20648;-55
2024/03/03 07:24:13;;;;;;;19.00;8.93;;;3.40;99.90;;;;;;5038449;28;20203;-56
2024/03/03 07:26:39;;;;;;;17.97;9.20;;;3.40;99.90;;;;;;5028763;28;20198;-53
2024/03/03 07:29:05;;;;;;;16.50;8.23;;;3.50;99.90;;;;;;5036572;28;20184;-56
2024/03/03 07:31:30;;;;;;;23.67;11.03;;;3.60;99.90;;;;;;5033051;28;20179;-55
2024/03/03 07:33:56;;;;;;;19.33;9.20;;;3.70;99.90;;;;;;5048589;28;20264;-58
2024/03/03 07:36:22;;;;;;;24.43;11.60;;;3.80;99.90;;;;;;5040189;28;20268;-54
2024/03/03 07:38:47;;;;;;;21.57;11.37;;;3.80;99.90;;;;;;5040268;28;20237;-54
2024/03/03 07:41:13;;;;;;;21.73;11.23;;;3.90;99.90;;;;;;5032016;28;20195;-55
2024/03/03 07:43:39;;;;;;;20.30;10.80;;;4.00;99.90;;;;;;5048617;28;20697;-57
2024/03/03 07:46:04;;;;;;;21.53;9.57;;;4.10;99.90;;;;;;5047609;28;20222;-56
2024/03/03 07:48:30;;;;;;;19.13;9.93;;;4.30;99.90;;;;;;5040804;28;20274;-55
2024/03/03 07:50:56;;;;;;;19.93;10.03;;;4.30;99.90;;;;;;5032957;28;20291;-59
2024/03/03 07:53:22;;;;;;;20.07;10.97;;;4.30;99.90;;;;;;5047825;28;20679;-53
2024/03/03 07:55:48;;;;;;;19.90;11.30;;;4.50;99.90;;;;;;5033846;28;20211;-52
2024/03/03 07:58:13;;;;;;;21.43;10.73;;;4.60;99.90;;;;;;5036188;28;20194;-55
2024/03/03 08:00:39;;;;;;;17.67;10.03;;;4.90;99.90;;;;;;5028415;28;20183;-54
2024/03/03 08:03:07;;;;;;;21.47;10.43;;;5.10;99.90;;;;;;5037924;28;20310;-52
2024/03/03 08:05:33;;;;;;;30.10;12.50;;;5.40;99.90;;;;;;5052453;28;20229;-53
2024/03/03 08:08:02;;;;;;;20.60;10.37;;;5.70;99.90;;;;;;5043573;28;20194;-55
2024/03/03 08:10:28;;;;;;;19.57;9.77;;;6.00;99.90;;;;;;5040298;28;20183;-52
2024/03/03 08:12:54;;;;;;;24.50;11.77;;;6.40;99.90;;;;;;5032334;28;20218;-53
2024/03/03 08:15:20;;;;;;;18.77;9.53;;;6.80;99.90;;;;;;5032050;28;20655;-52
2024/03/03 08:17:45;;;;;;;26.00;9.17;;;7.30;99.90;;;;;;5046413;28;20179;-55
2024/03/03 08:20:11;;;;;;;19.80;9.67;;;8.10;99.90;;;;;;5043931;28;20646;-52
2024/03/03 08:22:41;;;;;;;17.43;8.53;;;8.70;99.90;;;;;;5052022;28;20203;-53
2024/03/03 08:25:13;;;;;;;16.80;8.40;;;9.30;99.90;;;;;;5043860;28;20617;-57
2024/03/03 08:27:39;;;;;;;19.57;9.00;;;9.80;99.90;;;;;;5046415;28;20195;-56
2024/03/03 08:30:06;;;;;;;16.93;9.10;;;9.90;99.90;;;;;;5032562;28;20757;-60
2024/03/03 08:32:33;;;;;;;16.37;8.33;;;10.30;99.90;;;;;;5047391;28;20333;-59
2024/03/03 08:34:59;;;;;;;17.40;8.93;;;10.40;99.90;;;;;;5039889;28;20203;-60
2024/03/03 08:37:25;;;;;;;17.27;9.07;;;10.50;99.90;;;;;;5051225;28;20179;-61
2024/03/03 08:39:51;;;;;;;14.93;8.23;;;10.80;99.90;;;;;;5045343;28;20176;-58
2024/03/03 08:42:17;;;;;;;19.17;9.03;;;11.00;99.90;;;;;;5040227;28;20559;-59
2024/03/03 08:44:42;;;;;;;18.20;8.13;;;11.40;99.90;;;;;;5037538;28;20210;-58
2024/03/03 08:47:08;;;;;;;15.27;7.87;;;11.70;99.90;;;;;;5033726;28;20195;-56
2024/03/03 08:49:33;;;;;;;15.20;8.13;;;12.30;99.90;;;;;;5036635;28;20175;-60
2024/03/03 08:52:01;;;;;;;22.60;8.73;;;12.60;99.90;;;;;;5051696;28;20326;-59
2024/03/03 08:54:27;;;;;;;21.37;9.73;;;13.10;99.90;;;;;;5040435;28;20565;-61
2024/03/03 08:56:53;;;;;;;21.30;11.27;;;13.60;99.90;;;;;;5032492;28;20195;-54
2024/03/03 08:59:18;;;;;;;21.80;11.83;;;13.90;99.90;;;;;;5047275;28;20275;-55
2024/03/03 09:01:44;;;;;;;21.77;11.60;;;14.20;99.90;;;;;;5030546;28;20243;-54
2024/03/03 09:04:10;;;;;;;19.77;10.33;;;14.60;99.90;;;;;;5015199;28;20215;-53
2024/03/03 09:06:35;;;;;;;18.13;9.93;;;14.80;99.90;;;;;;5051331;28;20175;-56
2024/03/03 09:09:01;;;;;;;19.70;9.40;;;14.80;99.90;;;;;;5042648;28;20189;-59
2024/03/03 09:11:27;;;;;;;14.50;8.03;;;14.70;99.90;;;;;;5051518;28;20187;-55
2024/03/03 09:13:53;;;;;;;18.60;8.83;;;14.80;99.90;;;;;;5035994;28;20318;-54
2024/03/03 09:16:18;;;;;;;16.20;8.80;;;15.10;99.90;;;;;;5038698;28;20362;-56
2024/03/03 09:18:44;;;;;;;17.17;8.20;;;15.30;99.90;;;;;;5045040;28;20294;-53
2024/03/03 09:21:10;;;;;;;15.57;8.00;;;15.70;99.90;;;;;;5023526;28;20359;-54
2024/03/03 09:23:36;;;;;;;17.37;8.07;;;16.20;99.90;;;;;;5039525;28;20226;-54
2024/03/03 09:26:01;;;;;;;17.60;8.37;;;16.40;99.90;;;;;;5031165;28;20228;-59
2024/03/03 09:28:27;;;;;;;19.73;9.67;;;16.60;99.90;;;;;;5034375;28;20237;-54
2024/03/03 09:30:54;;;;;;;22.67;9.87;;;16.60;99.90;;;;;;5042834;28;20206;-53
2024/03/03 09:33:20;;;;;;;19.07;9.40;;;16.60;99.90;;;;;;5034664;28;20592;-57
2024/03/03 09:35:45;;;;;;;16.57;9.47;;;16.60;99.90;;;;;;5044891;28;20278;-56
2024/03/03 09:38:11;;;;;;;16.90;8.60;;;16.40;99.90;;;;;;5038568;28;20184;-55
2024/03/03 09:40:37;;;;;;;14.93;8.23;;;16.50;99.90;;;;;;5044363;28;20190;-54
2024/03/03 09:43:09;;;;;;;14.97;8.73;;;16.50;99.90;;;;;;5042455;28;20226;-56
2024/03/03 09:45:35;;;;;;;16.80;8.23;;;16.30;99.90;;;;;;5030595;28;20184;-55
2024/03/03 09:48:02;;;;;;;16.07;8.30;;;16.70;99.90;;;;;;5030146;28;20192;-55
2024/03/03 09:50:28;;;;;;;16.73;7.90;;;16.80;99.90;;;;;;5031116;28;20196;-58
2024/03/03 09:52:57;;;;;;;15.37;7.47;;;16.80;99.90;;;;;;5030520;28;20199;-56
2024/03/03 09:55:24;;;;;;;13.73;7.77;;;16.90;99.90;;;;;;5038578;28;20557;-57
2024/03/03 09:57:50;;;;;;;16.87;8.00;;;16.70;99.90;;;;;;5029902;28;20188;-58
2024/03/03 10:00:17;;;;;;;13.60;8.23;;;16.90;99.90;;;;;;5038479;28;20207;-58
2024/03/03 10:02:43;;;;;;;14.57;8.03;;;17.00;99.90;;;;;;5035970;28;20272;-58
2024/03/03 10:05:10;;;;;;;14.87;7.83;;;17.30;99.90;;;;;;5041149;28;20266;-56
2024/03/03 10:07:40;;;;;;;14.37;8.17;;;17.50;99.90;;;;;;5038139;28;20192;-52
2024/03/03 10:10:10;;;;;;;12.33;7.30;;;17.50;99.90;;;;;;5039141;28;20191;-59
2024/03/03 10:12:37;;;;;;;12.70;7.13;;;17.70;99.90;;;;;;5030784;28;20211;-60
2024/03/03 10:15:04;;;;;;;13.50;7.87;;;17.80;99.90;;;;;;5031346;28;20217;-60
2024/03/03 10:17:30;;;;;;;14.60;7.97;;;17.70;99.90;;;;;;5037974;28;20552;-61
2024/03/03 10:20:06;;;;;;;13.03;7.57;;;17.60;99.90;;;;;;5039063;28;20704;-61
2024/03/03 10:22:31;;;;;;;13.70;7.60;;;17.90;99.90;;;;;;5039264;28;20746;-62
2024/03/03 10:25:11;;;;;;;12.67;7.43;;;18.00;99.90;;;;;;5046512;28;20261;-60
2024/03/03 10:27:42;;;;;;;12.97;7.40;;;18.00;99.90;;;;;;5028874;28;20179;-58
2024/03/03 10:30:09;;;;;;;15.40;8.23;;;18.20;99.90;;;;;;5038415;28;20639;-61
2024/03/03 10:32:36;;;;;;;15.83;8.17;;;18.30;99.90;;;;;;5035283;28;20209;-61
2024/03/03 10:35:02;;;;;;;15.30;7.90;;;18.40;99.90;;;;;;5041755;28;20215;-60
2024/03/03 10:37:28;;;;;;;17.67;7.50;;;18.70;99.90;;;;;;5029711;28;20303;-62
2024/03/03 10:39:54;;;;;;;12.70;7.53;;;18.50;99.90;;;;;;5037226;28;20242;-61
2024/03/03 10:42:19;;;;;;;15.57;8.33;;;18.40;99.90;;;;;;5030877;28;20203;-61
2024/03/03 10:44:45;;;;;;;12.63;7.27;;;18.20;99.90;;;;;;5038491;28;20232;-60
2024/03/03 10:47:14;;;;;;;14.87;7.00;;;18.10;99.90;;;;;;5031073;28;20199;-62
2024/03/03 10:49:41;;;;;;;12.70;7.40;;;18.10;99.90;;;;;;5045057;28;20187;-61
2024/03/03 10:52:11;;;;;;;15.43;7.03;;;18.50;99.90;;;;;;5038780;28;20634;-61
2024/03/03 10:54:41;;;;;;;13.63;6.77;;;18.80;99.90;;;;;;5041548;28;20182;-61
2024/03/03 10:57:08;;;;;;;15.80;6.87;;;19.00;99.90;;;;;;5049450;28;20209;-61
2024/03/03 10:59:37;;;;;;;11.53;6.53;;;19.00;99.90;;;;;;5029659;28;20208;-61
2024/03/03 11:02:03;;;;;;;12.20;6.20;;;19.10;99.90;;;;;;5029869;28;20188;-61
2024/03/03 11:04:33;;;;;;;11.13;5.83;;;19.00;99.90;;;;;;5033813;28;20183;-61
2024/03/03 11:07:01;;;;;;;9.57;5.70;;;19.20;99.90;;;;;;5034033;28;20179;-60
2024/03/03 11:09:27;;;;;;;11.90;6.63;;;19.00;99.90;;;;;;5037599;28;20188;-58
2024/03/03 11:12:00;;;;;;;14.90;7.67;;;18.60;99.90;;;;;;5030220;28;20203;-60
2024/03/03 11:14:31;;;;;;;12.10;6.40;;;18.80;99.90;;;;;;5045993;28;20207;-61
2024/03/03 11:17:03;;;;;;;13.17;6.10;;;18.70;99.90;;;;;;5029162;28;20721;-59
2024/03/03 11:19:40;;;;;;;13.70;5.83;;;18.70;99.90;;;;;;5028661;28;20172;-60
2024/03/03 11:22:10;;;;;;;16.13;7.90;;;18.80;99.90;;;;;;5037363;28;20286;-58
2024/03/03 11:24:41;;;;;;;12.37;6.57;;;19.00;99.90;;;;;;5042451;28;20194;-60
2024/03/03 11:27:22;;;;;;;13.93;5.67;;;19.20;99.90;;;;;;5031921;28;20187;-59
2024/03/03 11:29:48;;;;;;;12.60;5.30;;;19.10;99.90;;;;;;5029027;28;20279;-59
2024/03/03 11:32:15;;;;;;;10.60;5.03;;;19.20;99.90;;;;;;5038566;28;20198;-60
2024/03/03 11:34:43;;;;;;;10.37;5.27;;;19.20;99.90;;;;;;5044335;28;20555;-60
2024/03/03 11:37:10;;;;;;;11.40;5.27;;;19.10;99.90;;;;;;5037382;28;20175;-59
2024/03/03 11:39:37;;;;;;;10.67;5.80;;;19.10;99.90;;;;;;5035680;28;20180;-59
2024/03/03 11:42:38;;;;;;;8.80;5.13;;;19.00;99.90;;;;;;5029077;28;20230;-57
2024/03/03 11:45:06;;;;;;;20.27;9.87;;;18.90;99.90;;;;;;5002875;28;20204;-57
2024/03/03 11:47:45;;;;;;;10.70;5.30;;;18.80;99.90;;;;;;5027870;28;20194;-59
2024/03/03 11:50:17;;;;;;;10.77;5.47;;;19.00;99.90;;;;;;5038911;28;20295;-61
2024/03/03 11:52:52;;;;;;;12.37;5.40;;;19.10;99.90;;;;;;5040616;28;20195;-59
2024/03/03 11:55:30;;;;;;;11.40;5.17;;;19.10;99.90;;;;;;5038326;28;20206;-57
2024/03/03 11:57:58;;;;;;;9.53;5.10;;;18.80;99.90;;;;;;5044174;28;20175;-59
2024/03/03 12:00:24;;;;;;;11.00;4.73;;;18.80;99.90;;;;;;5037274;28;20180;-59
2024/03/03 12:02:51;;;;;;;11.93;4.30;;;18.90;99.90;;;;;;5028706;28;20218;-59
2024/03/03 12:05:17;;;;;;;7.50;4.37;;;19.10;99.90;;;;;;5028546;28;20195;-60
2024/03/03 12:07:48;;;;;;;11.17;4.47;;;19.20;99.90;;;;;;5027602;28;20263;-59
2024/03/03 12:10:17;;;;;;;9.30;4.47;;;19.30;99.90;;;;;;5030123;28;20182;-61
2024/03/03 12:12:50;;;;;;;9.97;4.40;;;19.30;99.90;;;;;;5034778;28;20206;-58
2024/03/03 12:15:17;;;;;;;10.27;4.43;;;19.60;99.90;;;;;;5036565;28;20245;-60
2024/03/03 12:17:47;;;;;;;9.43;4.40;;;19.50;99.90;;;;;;5028445;28;20176;-61
2024/03/03 12:20:15;;;;;;;6.90;3.80;;;19.70;99.90;;;;;;5044714;28;20187;-59
2024/03/03 12:22:40;;;;;;;16.23;4.57;;;19.70;99.90;;;;;;5028917;28;20228;-57
2024/03/03 12:25:07;;;;;;;9.63;4.50;;;19.90;99.90;;;;;;5028801;28;20212;-59
2024/03/03 12:27:33;;;;;;;14.00;4.47;;;19.80;99.90;;;;;;5028291;28;20482;-59
2024/03/03 12:30:00;;;;;;;8.40;4.30;;;19.90;99.90;;;;;;5028318;28;20188;-61
2024/03/03 12:32:28;;;;;;;9.13;4.27;;;20.00;99.90;;;;;;5036690;28;20606;-60
2024/03/03 12:34:56;;;;;;;7.07;4.13;;;19.80;99.90;;;;;;5028748;28;20702;-62
2024/03/03 12:37:23;;;;;;;7.47;3.97;;;20.00;99.90;;;;;;5036187;28;20244;-61
2024/03/03 12:39:49;;;;;;;8.60;4.03;;;19.90;99.90;;;;;;5028484;28;20227;-61